Time;durP1;ratioP1;P1;durP2;ratioP2;P2;SDS_P1;SDS_P2;PMS_P1;PMS_P2;Temp;Humidity;BMP_temperature;BMP_pressure;BME280_temperature;BME280_humidity;BME280_pressure;Samples;Min_cycle;Max_cycle;Signal;HPM_P1;HPM_P2
2021/10/26 00:00:49;;;;;;;28.40;16.38;;;10.20;99.90;;;;;;5050590;28;20025;-65
2021/10/26 00:03:15;;;;;;;25.92;16.45;;;10.20;99.90;;;;;;5051650;28;20029;-66
2021/10/26 00:05:41;;;;;;;25.42;15.80;;;10.20;99.90;;;;;;5050153;28;20087;-66
2021/10/26 00:08:07;;;;;;;21.08;15.68;;;10.40;99.90;;;;;;5050054;28;20119;-66
2021/10/26 00:10:33;;;;;;;22.13;15.50;;;10.50;99.90;;;;;;5051331;28;20451;-66
2021/10/26 00:12:59;;;;;;;18.77;13.93;;;10.60;99.90;;;;;;5051374;28;20091;-65
2021/10/26 00:15:25;;;;;;;28.48;15.52;;;10.50;99.90;;;;;;5051184;28;20536;-66
2021/10/26 00:17:51;;;;;;;21.42;15.30;;;10.60;99.90;;;;;;5050235;28;20106;-66
2021/10/26 00:20:17;;;;;;;25.17;15.95;;;10.60;99.90;;;;;;5051212;28;20131;-65
2021/10/26 00:22:43;;;;;;;25.05;15.18;;;10.70;99.90;;;;;;5049804;28;20504;-65
2021/10/26 00:25:09;;;;;;;24.40;16.60;;;10.80;99.90;;;;;;5051818;28;20037;-66
2021/10/26 00:27:35;;;;;;;22.60;15.00;;;10.90;99.90;;;;;;5050709;28;20490;-66
2021/10/26 00:30:01;;;;;;;26.25;15.35;;;10.90;99.90;;;;;;5051168;28;20029;-65
2021/10/26 00:32:26;;;;;;;24.33;14.95;;;10.90;99.90;;;;;;5050776;28;20021;-66
2021/10/26 00:34:52;;;;;;;21.92;14.55;;;10.80;99.90;;;;;;5051442;28;20027;-65
2021/10/26 00:37:18;;;;;;;20.58;13.93;;;10.80;99.90;;;;;;5051529;28;20033;-65
2021/10/26 00:39:45;;;;;;;21.42;14.65;;;10.80;99.90;;;;;;5050870;28;20052;-66
2021/10/26 00:42:11;;;;;;;27.45;14.38;;;10.70;99.90;;;;;;5051441;28;20123;-65
2021/10/26 00:44:38;;;;;;;25.20;14.45;;;10.70;99.90;;;;;;5052954;28;20426;-65
2021/10/26 00:47:04;;;;;;;20.75;14.88;;;10.70;99.90;;;;;;5054884;28;20025;-65
2021/10/26 00:49:30;;;;;;;23.48;14.98;;;10.70;99.90;;;;;;5053315;28;20032;-65
2021/10/26 00:51:55;;;;;;;23.23;15.80;;;10.70;99.90;;;;;;5053604;28;20025;-66
2021/10/26 00:54:24;;;;;;;21.35;15.07;;;10.50;99.90;;;;;;5054354;28;20566;-81
2021/10/26 00:56:50;;;;;;;23.13;14.75;;;10.60;99.90;;;;;;5054784;28;20056;-66
2021/10/26 00:59:16;;;;;;;20.20;14.88;;;10.60;99.90;;;;;;5054375;28;20033;-65
2021/10/26 01:01:42;;;;;;;22.40;14.63;;;10.60;99.90;;;;;;5054275;28;20378;-65
2021/10/26 01:04:08;;;;;;;24.25;15.57;;;10.60;99.90;;;;;;5053427;28;20024;-66
2021/10/26 01:06:35;;;;;;;19.92;14.90;;;10.50;99.90;;;;;;5053843;28;20454;-66
2021/10/26 01:09:02;;;;;;;23.13;15.85;;;10.60;99.90;;;;;;5054458;28;20047;-66
2021/10/26 01:11:29;;;;;;;28.00;16.02;;;10.60;99.90;;;;;;5054174;28;20056;-66
2021/10/26 01:13:55;;;;;;;20.50;14.63;;;10.50;99.90;;;;;;5052838;28;20098;-65
2021/10/26 01:16:22;;;;;;;21.15;13.90;;;10.60;99.90;;;;;;5054283;28;20036;-65
2021/10/26 01:18:48;;;;;;;25.30;15.25;;;10.60;99.90;;;;;;5053190;28;20128;-65
2021/10/26 01:21:14;;;;;;;22.35;13.77;;;10.60;99.90;;;;;;5054462;28;20029;-66
2021/10/26 01:23:39;;;;;;;23.15;15.20;;;10.50;99.90;;;;;;5035846;28;20032;-66
2021/10/26 01:26:05;;;;;;;28.60;15.25;;;10.60;99.90;;;;;;5054406;28;20033;-66
2021/10/26 01:28:31;;;;;;;20.00;13.85;;;10.50;99.90;;;;;;5053388;28;20415;-66
2021/10/26 01:30:56;;;;;;;29.88;15.77;;;10.30;99.90;;;;;;5054356;28;20079;-66
2021/10/26 01:33:23;;;;;;;18.08;14.02;;;10.30;99.90;;;;;;5054207;28;20440;-65
2021/10/26 01:35:49;;;;;;;22.85;15.18;;;10.30;99.90;;;;;;5054382;28;20091;-66
2021/10/26 01:38:15;;;;;;;21.98;14.20;;;10.30;99.90;;;;;;5052575;28;20029;-65
2021/10/26 01:40:40;;;;;;;23.15;14.85;;;10.30;99.90;;;;;;5053579;28;20036;-66
2021/10/26 01:43:06;;;;;;;25.13;16.00;;;10.40;99.90;;;;;;5053822;28;20449;-65
2021/10/26 01:45:32;;;;;;;23.33;16.00;;;10.40;99.90;;;;;;5052272;28;20029;-66
2021/10/26 01:47:58;;;;;;;20.63;14.45;;;10.30;99.90;;;;;;5054083;28;20036;-65
2021/10/26 01:50:24;;;;;;;19.58;13.25;;;10.30;99.90;;;;;;5053786;28;20413;-82
2021/10/26 01:52:50;;;;;;;21.88;13.68;;;10.30;99.90;;;;;;5052497;28;20029;-66
2021/10/26 01:55:18;;;;;;;22.98;13.48;;;10.30;99.90;;;;;;5053061;28;20056;-67
2021/10/26 01:57:45;;;;;;;20.30;14.32;;;10.30;99.90;;;;;;5053105;28;20033;-66
2021/10/26 02:00:13;;;;;;;19.38;13.68;;;10.30;99.90;;;;;;5053850;28;20090;-66
2021/10/26 02:02:38;;;;;;;21.35;15.13;;;10.20;99.90;;;;;;5053356;28;20025;-66
2021/10/26 02:05:06;;;;;;;23.83;15.02;;;10.20;99.90;;;;;;5053846;28;20028;-66
2021/10/26 02:07:32;;;;;;;22.80;13.95;;;10.20;99.90;;;;;;5053127;28;20056;-66
2021/10/26 02:09:58;;;;;;;19.95;14.75;;;10.20;99.90;;;;;;5053693;28;20504;-66
2021/10/26 02:12:23;;;;;;;20.85;14.15;;;10.30;99.90;;;;;;5053669;28;20029;-66
2021/10/26 02:14:50;;;;;;;23.02;14.20;;;10.20;99.90;;;;;;5053096;28;20032;-65
2021/10/26 02:17:16;;;;;;;19.15;13.57;;;10.20;99.90;;;;;;5053314;28;20108;-65
2021/10/26 02:19:42;;;;;;;23.60;13.98;;;10.20;99.90;;;;;;5051409;28;20107;-65
2021/10/26 02:22:07;;;;;;;23.85;14.30;;;10.20;99.90;;;;;;5052761;28;20063;-66
2021/10/26 02:24:33;;;;;;;18.65;13.57;;;10.20;99.90;;;;;;5052742;28;20035;-66
2021/10/26 02:26:59;;;;;;;31.05;13.50;;;10.10;99.90;;;;;;5052723;28;20339;-66
2021/10/26 02:29:25;;;;;;;20.58;12.73;;;10.20;99.90;;;;;;5051805;28;20066;-66
2021/10/26 02:31:52;;;;;;;17.92;13.90;;;10.20;99.90;;;;;;5050917;28;20059;-66
2021/10/26 02:34:18;;;;;;;18.05;13.35;;;10.20;99.90;;;;;;5052655;28;20029;-66
2021/10/26 02:36:45;;;;;;;17.67;12.70;;;10.30;99.90;;;;;;5052432;28;20028;-66
2021/10/26 02:39:11;;;;;;;16.92;11.95;;;10.30;99.90;;;;;;5052477;28;20033;-66
2021/10/26 02:41:37;;;;;;;22.27;13.52;;;10.40;99.90;;;;;;5052289;28;20344;-66
2021/10/26 02:44:03;;;;;;;19.48;12.20;;;10.50;99.90;;;;;;5052415;28;20021;-66
2021/10/26 02:46:29;;;;;;;18.00;11.10;;;10.50;99.90;;;;;;5052027;28;20051;-67
2021/10/26 02:48:54;;;;;;;21.98;12.93;;;10.50;99.90;;;;;;5051209;28;20032;-64
2021/10/26 02:51:20;;;;;;;16.95;11.80;;;10.60;99.90;;;;;;5052562;28;20374;-65
2021/10/26 02:53:47;;;;;;;19.48;12.77;;;10.50;99.90;;;;;;5051609;28;20063;-65
2021/10/26 02:56:12;;;;;;;18.83;12.60;;;10.50;99.90;;;;;;5050941;28;20025;-65
2021/10/26 02:58:38;;;;;;;20.77;12.05;;;10.50;99.90;;;;;;5050593;28;20048;-65
2021/10/26 03:01:04;;;;;;;20.35;11.95;;;10.50;99.90;;;;;;5051075;28;20532;-65
2021/10/26 03:03:29;;;;;;;18.75;13.70;;;10.50;99.90;;;;;;5051027;28;20017;-66
2021/10/26 03:05:56;;;;;;;17.63;11.88;;;10.60;99.90;;;;;;5051467;28;20020;-64
2021/10/26 03:08:22;;;;;;;19.48;12.70;;;10.60;99.90;;;;;;5052152;28;20040;-65
2021/10/26 03:10:48;;;;;;;21.48;13.35;;;10.40;99.90;;;;;;5051739;28;20037;-65
2021/10/26 03:13:14;;;;;;;21.00;13.00;;;10.30;99.90;;;;;;5050830;28;20413;-66
2021/10/26 03:15:40;;;;;;;19.30;12.93;;;10.30;99.90;;;;;;5050187;28;20035;-66
2021/10/26 03:18:06;;;;;;;18.63;13.35;;;10.20;99.90;;;;;;5050687;28;20123;-66
2021/10/26 03:20:32;;;;;;;21.92;12.88;;;10.30;99.90;;;;;;5051664;28;20029;-67
2021/10/26 03:22:58;;;;;;;19.85;12.35;;;10.20;99.90;;;;;;5050360;28;20040;-65
2021/10/26 03:25:24;;;;;;;17.42;12.00;;;10.30;99.90;;;;;;5051895;28;20021;-65
2021/10/26 03:27:50;;;;;;;21.63;12.57;;;10.20;99.90;;;;;;5049437;28;20505;-65
2021/10/26 03:30:16;;;;;;;22.40;13.18;;;10.20;99.90;;;;;;5051537;28;20029;-65
2021/10/26 03:32:42;;;;;;;19.02;13.43;;;10.20;99.90;;;;;;5049886;28;20032;-66
2021/10/26 03:35:09;;;;;;;18.20;12.38;;;10.20;99.90;;;;;;5051573;28;20040;-66
2021/10/26 03:37:37;;;;;;;30.33;13.27;;;10.20;99.90;;;;;;5051570;28;20112;-66
2021/10/26 03:40:07;;;;;;;17.92;13.27;;;10.20;99.90;;;;;;5050142;28;20431;-66
2021/10/26 03:42:33;;;;;;;18.38;12.85;;;10.30;99.90;;;;;;5050866;28;20033;-67
2021/10/26 03:44:58;;;;;;;19.80;11.57;;;10.30;99.90;;;;;;5051297;28;20176;-66
2021/10/26 03:47:24;;;;;;;16.42;13.05;;;10.40;99.90;;;;;;5051169;28;20056;-66
2021/10/26 03:49:50;;;;;;;18.42;12.07;;;10.40;99.90;;;;;;5050795;28;20025;-66
2021/10/26 03:52:16;;;;;;;16.90;12.07;;;10.40;99.90;;;;;;5051032;28;20078;-66
2021/10/26 03:54:41;;;;;;;18.05;12.55;;;10.50;99.90;;;;;;5049448;28;20427;-66
2021/10/26 03:57:12;;;;;;;16.73;11.68;;;10.50;99.90;;;;;;5051021;28;20060;-66
2021/10/26 03:59:39;;;;;;;17.77;11.10;;;10.60;99.90;;;;;;5050854;28;20044;-66
2021/10/26 04:02:09;;;;;;;18.92;12.48;;;10.60;99.90;;;;;;5051332;28;20029;-66
2021/10/26 04:04:35;;;;;;;16.30;10.88;;;10.60;99.90;;;;;;5049397;28;20025;-66
2021/10/26 04:07:03;;;;;;;19.48;11.23;;;10.70;99.90;;;;;;5051287;28;20024;-67
2021/10/26 04:09:45;;;;;;;19.23;11.63;;;10.60;99.90;;;;;;5051089;28;20075;-66
2021/10/26 04:12:25;;;;;;;22.67;12.00;;;10.60;99.90;;;;;;5050234;28;20029;-64
2021/10/26 04:14:56;;;;;;;13.57;10.70;;;10.60;99.90;;;;;;5049438;28;20451;-65
2021/10/26 04:17:24;;;;;;;16.98;11.75;;;10.50;99.90;;;;;;5049952;28;20025;-66
2021/10/26 04:19:51;;;;;;;16.02;11.43;;;10.60;99.90;;;;;;5053669;28;20115;-66
2021/10/26 04:22:17;;;;;;;16.35;11.20;;;10.50;99.90;;;;;;5054947;28;20028;-66
2021/10/26 04:24:44;;;;;;;15.52;11.25;;;10.60;99.90;;;;;;5054869;28;20032;-66
2021/10/26 04:27:11;;;;;;;20.73;11.77;;;10.60;99.90;;;;;;5054494;28;20405;-65
2021/10/26 04:29:38;;;;;;;16.33;11.82;;;10.70;99.90;;;;;;5054565;28;20021;-65
2021/10/26 04:32:06;;;;;;;20.38;11.55;;;10.70;99.90;;;;;;5055038;28;20454;-65
2021/10/26 04:34:32;;;;;;;13.85;10.98;;;10.70;99.90;;;;;;5054896;28;20550;-66
2021/10/26 04:36:58;;;;;;;15.10;11.00;;;10.80;99.90;;;;;;5054396;28;20052;-65
2021/10/26 04:39:23;;;;;;;23.80;11.45;;;10.80;99.90;;;;;;5054858;28;20056;-65
2021/10/26 04:41:49;;;;;;;19.55;12.10;;;10.80;99.90;;;;;;5053065;28;20040;-66
2021/10/26 04:44:15;;;;;;;17.05;11.40;;;10.80;99.90;;;;;;5054728;28;20463;-66
2021/10/26 04:46:40;;;;;;;17.83;12.68;;;10.70;99.90;;;;;;5053083;28;20037;-67
2021/10/26 04:49:06;;;;;;;14.55;11.05;;;10.60;99.90;;;;;;5054611;28;20474;-66
2021/10/26 04:51:32;;;;;;;20.05;11.60;;;10.70;99.90;;;;;;5054530;28;20378;-67
2021/10/26 04:53:57;;;;;;;17.50;11.73;;;10.70;99.90;;;;;;5053152;28;20036;-66
2021/10/26 04:56:23;;;;;;;20.13;12.18;;;10.70;99.90;;;;;;5054965;28;20033;-66
2021/10/26 04:58:49;;;;;;;19.85;11.38;;;10.70;99.90;;;;;;5054502;28;20037;-66
2021/10/26 05:01:14;;;;;;;18.48;12.45;;;10.80;99.90;;;;;;5053585;28;20116;-67
2021/10/26 05:03:42;;;;;;;22.17;11.95;;;10.70;99.90;;;;;;5054452;28;20461;-67
2021/10/26 05:06:08;;;;;;;16.30;11.25;;;10.70;99.90;;;;;;5054691;28;20390;-66
2021/10/26 05:08:34;;;;;;;20.77;11.45;;;10.60;99.90;;;;;;5054311;28;20029;-66
2021/10/26 05:11:00;;;;;;;17.73;10.43;;;10.70;99.90;;;;;;5052708;28;20122;-66
2021/10/26 05:13:29;;;;;;;15.50;9.50;;;10.80;99.90;;;;;;5052725;28;20103;-65
2021/10/26 05:15:56;;;;;;;15.68;10.05;;;10.80;99.90;;;;;;5053472;28;20446;-66
2021/10/26 05:18:22;;;;;;;13.18;9.77;;;10.80;99.90;;;;;;5054015;28;20039;-65
2021/10/26 05:20:49;;;;;;;13.23;9.52;;;10.80;99.90;;;;;;5053561;28;20029;-66
2021/10/26 05:23:14;;;;;;;15.73;10.27;;;10.90;99.90;;;;;;5052651;28;20360;-66
2021/10/26 05:25:41;;;;;;;17.35;10.43;;;10.80;99.90;;;;;;5053073;28;20095;-66
2021/10/26 05:28:07;;;;;;;15.10;10.27;;;10.90;99.90;;;;;;5053907;28;20474;-66
2021/10/26 05:30:33;;;;;;;14.85;10.32;;;10.90;99.90;;;;;;5053065;28;20108;-66
2021/10/26 05:33:00;;;;;;;19.63;10.93;;;10.90;99.90;;;;;;5053571;28;20090;-66
2021/10/26 05:35:25;;;;;;;16.05;9.18;;;10.90;99.90;;;;;;5053955;28;20025;-65
2021/10/26 05:37:51;;;;;;;14.25;10.32;;;11.00;99.90;;;;;;5052768;28;20036;-66
2021/10/26 05:40:17;;;;;;;16.73;9.55;;;11.00;99.90;;;;;;5051976;28;20471;-67
2021/10/26 05:42:42;;;;;;;14.70;8.93;;;11.00;99.90;;;;;;5051605;28;20124;-67
2021/10/26 05:45:08;;;;;;;15.45;9.68;;;11.00;99.90;;;;;;5053512;28;20036;-66
2021/10/26 05:47:34;;;;;;;12.65;8.20;;;11.00;99.90;;;;;;5051705;28;20032;-66
2021/10/26 05:50:00;;;;;;;11.98;8.52;;;11.10;99.90;;;;;;5052647;28;20398;-66
2021/10/26 05:52:26;;;;;;;18.50;9.18;;;11.10;99.90;;;;;;5051512;28;20025;-66
2021/10/26 05:54:51;;;;;;;15.65;8.82;;;11.20;99.90;;;;;;5052890;28;20036;-66
2021/10/26 05:57:17;;;;;;;18.05;9.13;;;11.10;99.90;;;;;;5051516;28;20029;-70
2021/10/26 05:59:43;;;;;;;12.77;8.00;;;11.10;99.90;;;;;;5050795;28;20339;-66
2021/10/26 06:02:09;;;;;;;10.18;8.02;;;11.10;99.90;;;;;;5051524;28;20070;-67
2021/10/26 06:04:35;;;;;;;15.38;8.00;;;11.20;99.90;;;;;;5053156;28;20088;-67
2021/10/26 06:07:01;;;;;;;17.23;9.38;;;11.20;99.90;;;;;;5052561;28;20025;-66
2021/10/26 06:09:30;;;;;;;13.98;7.97;;;11.20;99.90;;;;;;5052621;28;20029;-67
2021/10/26 06:11:57;;;;;;;11.98;9.25;;;11.20;99.90;;;;;;5052003;28;20025;-67
2021/10/26 06:14:23;;;;;;;13.07;9.10;;;11.20;99.90;;;;;;5052049;28;20029;-67
2021/10/26 06:16:48;;;;;;;16.05;9.05;;;11.20;99.90;;;;;;5052593;28;20035;-66
2021/10/26 06:19:14;;;;;;;14.88;9.57;;;11.20;99.90;;;;;;5042717;28;20034;-66
2021/10/26 06:21:40;;;;;;;14.05;9.32;;;11.20;99.90;;;;;;5040610;28;20435;-66
2021/10/26 06:24:06;;;;;;;14.35;9.07;;;11.20;99.90;;;;;;5040245;28;20059;-67
2021/10/26 06:26:32;;;;;;;12.98;8.18;;;11.20;99.90;;;;;;5049338;28;20102;-67
2021/10/26 06:28:58;;;;;;;15.98;7.78;;;11.20;99.90;;;;;;5050297;28;20037;-66
2021/10/26 06:31:25;;;;;;;10.13;8.95;;;11.20;99.90;;;;;;5047144;28;20116;-66
2021/10/26 06:33:51;;;;;;;14.23;7.53;;;11.30;99.90;;;;;;5051452;28;20075;-66
2021/10/26 06:36:17;;;;;;;17.83;7.03;;;11.80;99.90;;;;;;5050723;28;20387;-67
2021/10/26 06:38:43;;;;;;;14.02;8.45;;;12.00;99.90;;;;;;5050465;28;20036;-67
2021/10/26 06:41:08;;;;;;;20.00;9.68;;;11.80;99.90;;;;;;5052204;28;20025;-68
2021/10/26 06:43:35;;;;;;;13.40;9.30;;;11.50;99.90;;;;;;5052404;28;20402;-67
2021/10/26 06:46:04;;;;;;;13.65;9.07;;;11.40;99.90;;;;;;5042080;28;20109;-66
2021/10/26 06:48:29;;;;;;;17.52;10.30;;;11.20;99.90;;;;;;5051571;28;20037;-66
2021/10/26 06:50:55;;;;;;;15.40;10.50;;;11.20;99.90;;;;;;5053643;28;20385;-66
2021/10/26 06:53:22;;;;;;;14.85;10.60;;;11.40;99.90;;;;;;5053948;28;20110;-67
2021/10/26 06:55:49;;;;;;;16.58;10.52;;;11.60;99.90;;;;;;5053718;28;20031;-66
2021/10/26 06:58:14;;;;;;;18.33;9.25;;;11.70;99.90;;;;;;5052996;28;20525;-67
2021/10/26 07:00:42;;;;;;;16.95;7.55;;;11.80;99.90;;;;;;5051731;28;20029;-66
2021/10/26 07:03:09;;;;;;;11.32;7.43;;;11.80;99.90;;;;;;5051889;28;20028;-66
2021/10/26 07:05:36;;;;;;;17.48;8.27;;;11.80;99.90;;;;;;5049294;28;20115;-66
2021/10/26 07:08:03;;;;;;;13.63;8.52;;;11.90;99.90;;;;;;5047814;28;20029;-66
2021/10/26 07:10:28;;;;;;;13.93;7.70;;;11.90;99.90;;;;;;5049614;28;20025;-66
2021/10/26 07:12:55;;;;;;;11.95;7.75;;;12.00;99.90;;;;;;5043637;28;20060;-66
2021/10/26 07:15:21;;;;;;;10.73;6.90;;;12.00;99.90;;;;;;5036788;28;20025;-66
2021/10/26 07:17:47;;;;;;;15.80;7.10;;;12.00;99.90;;;;;;5043317;28;20114;-66
2021/10/26 07:20:15;;;;;;;10.15;7.15;;;12.10;99.90;;;;;;5031276;28;20154;-67
2021/10/26 07:22:41;;;;;;;13.02;7.88;;;12.00;99.90;;;;;;5039296;28;20079;-67
2021/10/26 07:25:10;;;;;;;10.73;6.50;;;12.00;99.90;;;;;;5042929;28;20029;-65
2021/10/26 07:27:38;;;;;;;15.18;7.20;;;12.60;99.90;;;;;;5048196;28;20065;-66
2021/10/26 07:30:10;;;;;;;7.43;6.43;;;12.80;99.90;;;;;;5047941;28;20123;-66
2021/10/26 07:32:36;;;;;;;12.85;7.40;;;12.50;99.90;;;;;;5050837;28;20441;-67
2021/10/26 07:35:03;;;;;;;13.90;7.47;;;12.40;99.90;;;;;;5054108;28;20123;-65
2021/10/26 07:37:34;;;;;;;14.50;6.78;;;12.30;99.90;;;;;;5048581;28;20028;-65
2021/10/26 07:40:00;;;;;;;11.88;7.00;;;12.30;99.90;;;;;;5060386;28;20032;-67
2021/10/26 07:42:26;;;;;;;15.63;7.38;;;12.10;99.90;;;;;;5050606;28;20103;-68
2021/10/26 07:44:52;;;;;;;10.63;7.40;;;12.30;99.90;;;;;;5051350;28;20373;-66
2021/10/26 07:47:20;;;;;;;10.38;7.40;;;12.70;99.90;;;;;;5050421;28;20032;-65
2021/10/26 07:49:50;;;;;;;13.23;7.13;;;13.10;99.90;;;;;;5052894;28;20446;-78
2021/10/26 07:52:17;;;;;;;14.88;7.43;;;13.40;99.90;;;;;;5050179;28;20482;-67
2021/10/26 07:54:52;;;;;;;16.30;7.05;;;13.90;99.90;;;;;;5050880;28;20053;-67
2021/10/26 07:57:19;;;;;;;10.35;6.70;;;13.80;99.90;;;;;;5050928;28;20427;-66
2021/10/26 07:59:45;;;;;;;11.45;6.57;;;13.60;99.90;;;;;;5045439;28;20037;-65
2021/10/26 08:02:13;;;;;;;11.70;6.72;;;13.50;99.90;;;;;;5049631;28;20025;-65
2021/10/26 08:04:40;;;;;;;10.63;6.50;;;13.60;99.90;;;;;;5050402;28;20021;-62
2021/10/26 08:07:07;;;;;;;15.57;6.97;;;14.00;99.90;;;;;;5048752;28;20021;-63
2021/10/26 08:09:33;;;;;;;9.63;6.28;;;14.20;99.90;;;;;;5049377;28;20025;-65
2021/10/26 08:11:59;;;;;;;11.25;6.28;;;14.30;99.90;;;;;;5051055;28;20036;-67
2021/10/26 08:14:25;;;;;;;12.43;6.80;;;13.70;99.90;;;;;;5051108;28;20025;-66
2021/10/26 08:16:50;;;;;;;9.40;7.45;;;13.20;99.90;;;;;;5051063;28;20100;-69
2021/10/26 08:19:16;;;;;;;11.38;7.13;;;13.00;99.90;;;;;;5041018;28;20029;-67
2021/10/26 08:21:42;;;;;;;11.40;7.55;;;13.00;99.90;;;;;;5033584;28;20033;-66
2021/10/26 08:24:09;;;;;;;10.90;7.57;;;12.90;99.90;;;;;;5032173;28;20500;-70
2021/10/26 08:26:45;;;;;;;12.70;7.68;;;12.90;99.90;;;;;;5037680;28;20048;-66
2021/10/26 08:29:16;;;;;;;16.92;8.38;;;12.80;99.90;;;;;;5030698;28;20116;-66
2021/10/26 08:34:50;;;;;;;15.30;7.70;;;12.90;99.90;;;;;;5036700;28;20048;-66
2021/10/26 08:37:17;;;;;;;15.10;7.63;;;13.00;99.90;;;;;;5037226;28;20045;-65
2021/10/26 08:39:43;;;;;;;19.23;7.95;;;13.10;99.90;;;;;;5049178;28;20141;-65
2021/10/26 08:42:11;;;;;;;15.57;8.00;;;13.00;99.90;;;;;;5049987;28;20029;-66
2021/10/26 08:44:37;;;;;;;14.27;8.77;;;12.80;99.90;;;;;;5048991;28;20028;-65
2021/10/26 08:47:03;;;;;;;15.52;9.23;;;12.80;99.90;;;;;;5049281;28;20025;-66
2021/10/26 08:49:29;;;;;;;16.20;9.20;;;12.90;99.90;;;;;;5050575;28;20402;-66
2021/10/26 08:51:55;;;;;;;12.82;8.50;;;12.90;99.90;;;;;;5048867;28;20410;-65
2021/10/26 08:54:21;;;;;;;14.70;8.70;;;12.80;99.90;;;;;;5050175;28;20044;-66
2021/10/26 08:56:48;;;;;;;13.40;8.45;;;12.70;99.90;;;;;;5049117;28;20029;-68
2021/10/26 08:59:20;;;;;;;10.18;7.40;;;12.80;99.90;;;;;;5049111;28;20470;-65
2021/10/26 09:01:50;;;;;;;15.98;9.07;;;12.90;99.90;;;;;;5049320;28;20036;-65
2021/10/26 09:04:16;;;;;;;12.23;7.93;;;12.90;99.90;;;;;;5045241;28;20033;-66
2021/10/26 09:06:52;;;;;;;11.07;7.72;;;12.90;99.90;;;;;;5052390;28;20025;-66
2021/10/26 09:09:26;;;;;;;14.35;8.23;;;13.10;99.90;;;;;;5053991;28;20037;-65
2021/10/26 09:17:30;;;;;;;12.80;6.65;;;13.40;99.90;;;;;;5053891;28;20427;-66
2021/10/26 09:20:01;;;;;;;15.18;8.18;;;13.40;99.90;;;;;;5053196;28;20040;-66
2021/10/26 09:22:29;;;;;;;14.80;7.55;;;13.40;99.90;;;;;;5052479;28;20495;-65
2021/10/26 09:25:00;;;;;;;14.73;7.00;;;13.30;99.90;;;;;;5051884;28;20037;-66
2021/10/26 09:27:28;;;;;;;10.77;6.63;;;13.40;99.90;;;;;;5048304;28;20152;-67
2021/10/26 09:29:58;;;;;;;12.05;8.57;;;14.00;99.90;;;;;;5037878;28;20033;-66
2021/10/26 09:32:30;;;;;;;39.08;8.07;;;14.50;99.90;;;;;;5035447;28;20117;-65
2021/10/26 09:35:02;;;;;;;9.75;5.82;;;15.30;99.90;;;;;;5031470;28;20026;-66
2021/10/26 09:37:39;;;;;;;11.88;5.57;;;15.90;99.90;;;;;;5049310;28;20111;-66
2021/10/26 09:40:07;;;;;;;15.75;6.13;;;16.20;99.90;;;;;;5048809;28;20060;-65
2021/10/26 09:42:46;;;;;;;7.65;5.45;;;16.40;99.90;;;;;;5052697;28;20033;-65
2021/10/26 09:45:25;;;;;;;14.35;5.25;;;16.30;99.90;;;;;;5031941;28;20033;-65
2021/10/26 09:48:00;;;;;;;10.52;5.32;;;16.80;99.90;;;;;;5031254;28;20091;-67
2021/10/26 09:50:31;;;;;;;7.07;4.75;;;16.80;99.90;;;;;;5035026;28;20523;-67
2021/10/26 09:53:04;;;;;;;6.05;4.40;;;16.90;99.90;;;;;;5048104;28;20112;-67
2021/10/26 09:55:36;;;;;;;7.75;4.65;;;17.80;99.90;;;;;;5049660;28;20033;-67
2021/10/26 09:58:05;;;;;;;8.32;4.25;;;17.70;99.90;;;;;;5051934;28;20029;-68
2021/10/26 10:00:34;;;;;;;5.97;4.00;;;17.80;99.90;;;;;;5051368;28;20083;-67
2021/10/26 10:03:05;;;;;;;7.32;4.22;;;17.70;99.90;;;;;;5050891;28;20079;-67
2021/10/26 10:05:34;;;;;;;8.25;4.30;;;17.70;99.90;;;;;;5051560;28;20116;-66
2021/10/26 10:08:24;;;;;;;9.00;4.30;;;17.90;99.90;;;;;;5051913;28;20044;-67
2021/10/26 10:10:52;;;;;;;4.93;3.90;;;18.20;99.90;;;;;;5050878;28;20033;-79
2021/10/26 10:13:18;;;;;;;6.53;4.13;;;18.10;99.90;;;;;;5052630;28;20048;-68
2021/10/26 10:15:47;;;;;;;10.93;4.47;;;18.00;99.90;;;;;;5052918;28;20435;-67
2021/10/26 10:18:19;;;;;;;5.57;3.38;;;18.50;99.90;;;;;;5051334;28;20028;-68
2021/10/26 10:20:48;;;;;;;9.05;3.08;;;18.50;99.90;;;;;;5050818;28;20166;-67
2021/10/26 10:23:15;;;;;;;7.20;3.67;;;18.70;99.90;;;;;;5051666;28;20028;-69
2021/10/26 10:25:43;;;;;;;8.43;3.30;;;18.90;99.90;;;;;;5052370;28;20130;-68
2021/10/26 10:28:10;;;;;;;6.22;3.30;;;19.20;99.90;;;;;;5051874;28;20104;-67
2021/10/26 10:30:37;;;;;;;7.05;3.00;;;19.10;99.70;;;;;;5052080;28;20028;-67
2021/10/26 10:33:03;;;;;;;3.50;2.72;;;19.00;99.90;;;;;;5049858;28;20455;-68
2021/10/26 10:35:30;;;;;;;7.57;2.88;;;19.20;99.70;;;;;;5050820;28;20182;-68
2021/10/26 10:37:58;;;;;;;7.18;3.50;;;19.10;99.70;;;;;;5051489;28;20040;-67
2021/10/26 10:40:27;;;;;;;8.98;3.47;;;18.70;99.90;;;;;;5052239;28;20112;-68
2021/10/26 10:42:54;;;;;;;6.70;3.17;;;18.50;99.90;;;;;;5049967;28;20025;-75
2021/10/26 10:45:34;;;;;;;20.52;3.72;;;18.80;99.90;;;;;;5051547;28;20135;-67
2021/10/26 10:48:02;;;;;;;6.97;4.25;;;19.30;99.90;;;;;;5049756;28;20403;-67
2021/10/26 10:50:38;;;;;;;8.40;3.35;;;19.90;99.10;;;;;;5052083;28;20035;-69
2021/10/26 10:53:19;;;;;;;5.78;3.10;;;19.90;99.00;;;;;;5049546;28;20032;-67
2021/10/26 10:56:13;;;;;;;4.00;3.05;;;20.40;98.30;;;;;;5050033;28;20033;-67
2021/10/26 10:58:41;;;;;;;27.98;6.18;;;20.40;98.20;;;;;;5050143;28;20037;-67
2021/10/26 11:01:19;;;;;;;9.15;3.35;;;20.70;97.90;;;;;;5049710;28;20056;-68
2021/10/26 11:03:45;;;;;;;7.85;3.20;;;20.10;98.10;;;;;;5051345;28;20029;-67
2021/10/26 11:06:43;;;;;;;3.50;2.75;;;19.70;98.80;;;;;;5049475;28;20429;-66
2021/10/26 11:09:31;;;;;;;7.28;2.95;;;18.60;99.70;;;;;;5050663;28;20032;-67
2021/10/26 11:12:20;;;;;;;5.10;2.25;;;19.30;99.50;;;;;;5049579;28;20032;-68
2021/10/26 11:14:56;;;;;;;6.00;2.97;;;19.10;99.30;;;;;;5051148;28;20017;-68
2021/10/26 11:17:39;;;;;;;5.63;2.60;;;19.10;99.50;;;;;;5049814;28;20064;-68
2021/10/26 11:20:31;;;;;;;7.45;3.03;;;19.00;99.60;;;;;;5049833;28;20036;-68
2021/10/26 11:23:03;;;;;;;6.22;2.80;;;18.30;99.90;;;;;;5045826;28;20030;-68
2021/10/26 11:25:31;;;;;;;6.63;3.05;;;17.80;99.90;;;;;;5030777;28;20371;-68
2021/10/26 11:27:57;;;;;;;11.05;3.30;;;17.70;99.90;;;;;;5044785;28;20057;-73
2021/10/26 11:30:29;;;;;;;6.28;2.92;;;17.40;99.90;;;;;;5042783;28;20036;-68
2021/10/26 11:33:10;;;;;;;6.63;2.83;;;17.30;99.90;;;;;;5044635;28;20041;-78
2021/10/26 11:36:05;;;;;;;5.93;3.22;;;17.00;99.90;;;;;;5049508;28;20386;-66
2021/10/26 11:38:33;;;;;;;5.63;3.40;;;16.80;99.90;;;;;;5049302;28;20040;-67
2021/10/26 11:41:17;;;;;;;7.32;3.45;;;17.00;99.90;;;;;;5042855;28;20043;-67
2021/10/26 11:44:13;;;;;;;8.60;3.35;;;17.10;99.90;;;;;;5050266;28;20041;-67
2021/10/26 11:46:42;;;;;;;6.32;2.83;;;17.00;99.90;;;;;;5049491;28;20041;-68
2021/10/26 11:49:12;;;;;;;9.07;3.50;;;16.70;99.90;;;;;;5047924;28;20103;-70
2021/10/26 11:51:42;;;;;;;10.73;3.78;;;16.50;99.90;;;;;;5041726;28;20025;-68
2021/10/26 11:54:20;;;;;;;6.67;3.80;;;16.30;99.90;;;;;;5049810;28;20505;-68
2021/10/26 11:57:01;;;;;;;6.95;3.00;;;16.90;99.90;;;;;;5048459;28;20064;-66
2021/10/26 11:59:30;;;;;;;7.30;3.42;;;17.30;99.90;;;;;;5050130;28;20079;-67
2021/10/26 12:01:59;;;;;;;6.35;3.15;;;17.80;99.90;;;;;;5049393;28;20033;-67
2021/10/26 12:04:35;;;;;;;6.32;3.00;;;17.90;99.90;;;;;;5049703;28;20029;-68
2021/10/26 12:07:16;;;;;;;4.60;2.78;;;17.90;99.90;;;;;;5045417;28;20032;-67
2021/10/26 12:09:50;;;;;;;7.53;3.58;;;17.80;99.90;;;;;;5046793;28;20486;-68
2021/10/26 12:12:23;;;;;;;5.53;3.40;;;17.50;99.90;;;;;;5048590;28;20025;-68
2021/10/26 12:14:59;;;;;;;4.55;2.60;;;17.40;99.90;;;;;;5044226;28;20026;-76
2021/10/26 12:17:31;;;;;;;6.95;2.70;;;16.80;99.90;;;;;;5036617;28;20077;-68
2021/10/26 12:19:58;;;;;;;;;;;16.60;99.90;;;;;;5036815;28;20029;-68
2021/10/26 12:22:43;;;;;;;13.68;3.47;;;16.60;99.90;;;;;;5046500;28;19950;-68
2021/10/26 12:25:16;;;;;;;6.35;3.10;;;16.50;99.90;;;;;;5028474;28;20064;-68
2021/10/26 12:27:50;;;;;;;13.68;3.80;;;16.60;99.90;;;;;;5028733;28;20067;-67
2021/10/26 12:30:16;;;;;;;4.80;2.40;;;16.70;99.90;;;;;;5028830;28;20362;-69
2021/10/26 12:32:58;;;;;;;3.67;2.90;;;16.70;99.90;;;;;;5030140;28;20029;-68
2021/10/26 12:35:30;;;;;;;16.20;2.97;;;16.70;99.90;;;;;;5029140;28;20505;-68
2021/10/26 12:38:23;;;;;;;7.35;2.33;;;16.70;99.90;;;;;;5029368;28;20120;-77
2021/10/26 12:40:50;;;;;;;7.68;2.53;;;16.60;99.90;;;;;;5033352;28;20332;-69
2021/10/26 12:43:23;;;;;;;5.03;2.22;;;16.70;99.90;;;;;;5032612;28;20313;-69
2021/10/26 12:45:53;;;;;;;6.35;2.17;;;16.50;99.90;;;;;;5033150;28;20025;-68
2021/10/26 12:48:21;;;;;;;3.92;2.13;;;16.80;99.90;;;;;;5033764;28;20037;-68
2021/10/26 12:50:58;;;;;;;4.90;1.88;;;17.00;99.90;;;;;;5032897;28;20113;-67